Time;durP1;ratioP1;P1;durP2;ratioP2;P2;SDS_P1;SDS_P2;PMS_P1;PMS_P2;Temp;Humidity;BMP_temperature;BMP_pressure;BME280_temperature;BME280_humidity;BME280_pressure;Samples;Min_cycle;Max_cycle;Signal;HPM_P1;HPM_P2
2022/09/25 00:01:19;;;;;;;20.40;17.63;;;;;;;;;;5135872;27;20239;-77
2022/09/25 00:03:50;;;;;;;22.63;17.63;;;;;;;;;;5136216;27;20331;-77
2022/09/25 00:06:19;;;;;;;19.93;16.93;;;;;;;;;;5135907;27;20234;-77
2022/09/25 00:08:47;;;;;;;17.47;15.43;;;;;;;;;;5116621;27;20672;-78
2022/09/25 00:11:16;;;;;;;20.23;15.70;;;;;;;;;;5115618;28;20717;-76
2022/09/25 00:13:45;;;;;;;18.17;15.53;;;;;;;;;;5115160;28;20677;-78
2022/09/25 00:16:15;;;;;;;19.30;14.57;;;;;;;;;;5115650;28;20246;-77
2022/09/25 00:21:31;;;;;;;17.00;14.73;;;;;;;;;;5115189;28;20240;-77
2022/09/25 00:24:00;;;;;;;19.77;14.80;;;;;;;;;;5115590;28;20651;-78
2022/09/25 00:26:29;;;;;;;14.40;12.90;;;;;;;;;;5115214;28;20296;-77
2022/09/25 00:28:59;;;;;;;16.83;13.53;;;;;;;;;;5114767;28;20245;-76
2022/09/25 00:31:28;;;;;;;18.10;13.43;;;;;;;;;;5115694;28;20239;-77
2022/09/25 00:33:58;;;;;;;19.53;13.13;;;;;;;;;;5115141;28;20221;-78
2022/09/25 00:36:26;;;;;;;17.13;12.37;;;;;;;;;;5115045;28;20613;-77
2022/09/25 00:38:57;;;;;;;15.87;11.13;;;;;;;;;;5115159;28;20542;-77
2022/09/25 00:41:26;;;;;;;16.60;12.07;;;;;;;;;;5114700;28;20201;-77
2022/09/25 00:43:55;;;;;;;16.70;11.50;;;;;;;;;;5115148;27;20254;-77
2022/09/25 00:46:27;;;;;;;17.43;10.80;;;;;;;;;;5114994;28;20189;-77
2022/09/25 00:48:58;;;;;;;15.03;10.53;;;;;;;;;;5118825;27;20196;-77
2022/09/25 00:51:30;;;;;;;15.77;10.67;;;;;;;;;;5127584;27;20581;-77
2022/09/25 00:54:02;;;;;;;15.77;10.70;;;;;;;;;;5130298;28;20276;-76
2022/09/25 00:56:32;;;;;;;13.90;9.93;;;;;;;;;;5135460;27;20549;-77
2022/09/25 00:59:00;;;;;;;15.70;10.23;;;;;;;;;;5120170;27;20276;-77
2022/09/25 01:01:29;;;;;;;11.47;10.23;;;;;;;;;;5131937;27;20255;-77
2022/09/25 01:03:58;;;;;;;16.23;10.10;;;;;;;;;;5115195;28;20259;-78
2022/09/25 01:06:27;;;;;;;15.07;9.90;;;;;;;;;;5118297;28;20334;-78
2022/09/25 01:08:57;;;;;;;12.77;9.77;;;;;;;;;;5114764;28;20248;-78
2022/09/25 01:11:27;;;;;;;14.97;9.70;;;;;;;;;;5114346;28;20236;-77
2022/09/25 01:13:57;;;;;;;16.30;10.37;;;;;;;;;;5114935;28;20690;-77
2022/09/25 01:16:28;;;;;;;15.03;10.57;;;;;;;;;;5117694;28;20228;-77
2022/09/25 01:19:01;;;;;;;17.33;9.67;;;;;;;;;;5119893;28;20186;-77
2022/09/25 01:21:34;;;;;;;17.50;10.50;;;;;;;;;;5113872;28;20201;-77
2022/09/25 01:24:19;;;;;;;19.20;11.60;;;;;;;;;;5114644;28;20304;-78
2022/09/25 01:27:20;;;;;;;18.97;11.73;;;;;;;;;;5114753;28;20240;-78
2022/09/25 01:29:52;;;;;;;15.73;11.40;;;;;;;;;;5052181;28;20289;-78
2022/09/25 01:32:23;;;;;;;19.60;11.30;;;;;;;;;;5064028;28;20222;-78
2022/09/25 01:34:55;;;;;;;18.13;11.63;;;;;;;;;;5103679;27;20236;-76
2022/09/25 01:37:26;;;;;;;17.37;11.63;;;;;;;;;;5135055;27;20248;-78
2022/09/25 01:39:57;;;;;;;15.13;11.47;;;;;;;;;;5121823;27;20193;-78
2022/09/25 01:42:27;;;;;;;17.77;11.20;;;;;;;;;;5122747;28;20345;-78
2022/09/25 01:44:58;;;;;;;15.07;10.73;;;;;;;;;;5134974;27;20295;-78
2022/09/25 01:47:29;;;;;;;20.13;11.50;;;;;;;;;;5135032;27;20200;-78
2022/09/25 01:49:59;;;;;;;19.13;10.60;;;;;;;;;;5135004;28;20287;-77
2022/09/25 01:52:31;;;;;;;19.53;11.00;;;;;;;;;;5129231;28;20274;-78
2022/09/25 01:55:03;;;;;;;15.03;9.40;;;;;;;;;;5131875;28;20227;-78
2022/09/25 01:57:35;;;;;;;17.67;10.50;;;;;;;;;;5114360;27;20224;-77
2022/09/25 02:00:07;;;;;;;16.47;9.43;;;;;;;;;;5114105;28;20662;-78
2022/09/25 02:02:38;;;;;;;19.10;9.53;;;;;;;;;;5114169;28;20729;-78
2022/09/25 02:05:10;;;;;;;14.63;8.83;;;;;;;;;;5134929;28;20246;-77
2022/09/25 02:07:42;;;;;;;14.43;8.67;;;;;;;;;;5134406;27;20271;-76
2022/09/25 02:10:13;;;;;;;11.40;7.60;;;;;;;;;;5116508;28;20255;-77
2022/09/25 02:12:43;;;;;;;11.63;7.07;;;;;;;;;;5134151;27;20736;-76
2022/09/25 02:15:15;;;;;;;12.43;7.10;;;;;;;;;;5138427;27;20223;-77
2022/09/25 02:20:33;;;;;;;14.47;7.07;;;;;;;;;;5138233;27;20301;-78
2022/09/25 02:23:07;;;;;;;13.13;6.80;;;;;;;;;;5137946;27;20323;-77
2022/09/25 02:25:37;;;;;;;18.13;6.80;;;;;;;;;;5133428;27;20235;-77
2022/09/25 02:28:06;;;;;;;10.60;5.77;;;;;;;;;;5138196;27;20271;-77
2022/09/25 02:30:36;;;;;;;13.03;5.80;;;;;;;;;;5138033;27;20681;-77
2022/09/25 02:33:04;;;;;;;16.00;6.03;;;;;;;;;;5120013;27;20264;-77
2022/09/25 02:35:33;;;;;;;10.63;6.00;;;;;;;;;;5138130;27;20653;-78
2022/09/25 02:38:01;;;;;;;10.87;5.90;;;;;;;;;;5137599;27;20260;-78
2022/09/25 02:40:34;;;;;;;11.77;5.77;;;;;;;;;;5138073;27;20193;-78
2022/09/25 02:43:07;;;;;;;15.33;6.43;;;;;;;;;;5124155;27;20256;-78
2022/09/25 02:45:39;;;;;;;10.20;5.10;;;;;;;;;;5116849;28;20256;-77
2022/09/25 02:48:12;;;;;;;13.07;5.03;;;;;;;;;;5117392;28;20201;-77
2022/09/25 02:50:46;;;;;;;10.37;5.20;;;;;;;;;;5135455;27;20196;-78
2022/09/25 02:53:18;;;;;;;11.60;4.63;;;;;;;;;;5137357;27;20256;-78
2022/09/25 02:55:50;;;;;;;12.00;5.13;;;;;;;;;;5137524;27;20235;-77
2022/09/25 02:58:23;;;;;;;12.33;4.67;;;;;;;;;;5132173;27;20239;-78
2022/09/25 03:00:54;;;;;;;9.20;4.43;;;;;;;;;;5136568;27;20239;-78
2022/09/25 03:03:24;;;;;;;10.63;4.70;;;;;;;;;;5137673;27;20232;-78
2022/09/25 03:05:55;;;;;;;10.40;4.53;;;;;;;;;;5137177;27;20222;-78
2022/09/25 03:08:40;;;;;;;13.80;4.70;;;;;;;;;;5137533;27;20193;-78
2022/09/25 03:11:09;;;;;;;13.67;4.50;;;;;;;;;;5117018;28;20209;-78
2022/09/25 03:13:38;;;;;;;14.40;4.33;;;;;;;;;;5119810;27;20247;-78
2022/09/25 03:16:11;;;;;;;10.20;4.13;;;;;;;;;;5137381;27;20287;-78
2022/09/25 03:18:39;;;;;;;12.93;4.40;;;;;;;;;;5136283;27;20595;-77
2022/09/25 03:21:08;;;;;;;6.57;4.13;;;;;;;;;;5135790;27;20192;-77
2022/09/25 03:23:36;;;;;;;12.67;4.20;;;;;;;;;;5136869;27;20275;-77
2022/09/25 03:26:05;;;;;;;11.77;4.27;;;;;;;;;;5137437;27;20239;-77
2022/09/25 03:28:33;;;;;;;8.80;4.07;;;;;;;;;;5130255;27;20209;-78
2022/09/25 03:31:03;;;;;;;8.73;4.10;;;;;;;;;;5117684;27;20204;-77
2022/09/25 03:33:34;;;;;;;10.23;4.10;;;;;;;;;;5116184;28;20282;-78
2022/09/25 03:36:05;;;;;;;10.97;4.17;;;;;;;;;;5116491;28;20224;-78
2022/09/25 03:38:33;;;;;;;9.07;4.20;;;;;;;;;;5116342;28;20220;-76
2022/09/25 03:41:02;;;;;;;11.60;4.00;;;;;;;;;;5118655;27;20292;-78
2022/09/25 03:43:32;;;;;;;11.87;4.10;;;;;;;;;;5116389;28;20260;-78
2022/09/25 03:46:00;;;;;;;12.23;4.00;;;;;;;;;;5115751;28;20681;-78
2022/09/25 03:48:29;;;;;;;11.90;4.30;;;;;;;;;;5133973;27;20201;-78
2022/09/25 03:50:59;;;;;;;12.30;4.40;;;;;;;;;;5119335;27;20626;-79
2022/09/25 03:53:30;;;;;;;11.57;4.40;;;;;;;;;;5116042;28;20217;-78
2022/09/25 03:55:58;;;;;;;10.40;4.13;;;;;;;;;;5115708;28;20355;-78
2022/09/25 03:58:28;;;;;;;11.30;4.43;;;;;;;;;;5115393;28;20243;-78
2022/09/25 04:00:56;;;;;;;14.50;4.30;;;;;;;;;;5115414;28;20638;-78
2022/09/25 04:03:26;;;;;;;13.73;4.27;;;;;;;;;;5115525;28;20225;-78
2022/09/25 04:05:55;;;;;;;11.87;4.43;;;;;;;;;;5116103;28;20200;-77
2022/09/25 04:08:25;;;;;;;10.43;4.23;;;;;;;;;;5115632;28;20287;-78
2022/09/25 04:10:55;;;;;;;10.83;4.80;;;;;;;;;;5115634;28;20657;-78
2022/09/25 04:13:23;;;;;;;10.27;4.57;;;;;;;;;;5115849;28;20755;-78
2022/09/25 04:15:52;;;;;;;9.57;4.13;;;;;;;;;;5115540;28;20201;-78
2022/09/25 04:18:20;;;;;;;11.97;4.40;;;;;;;;;;5124764;27;20234;-78
2022/09/25 04:20:49;;;;;;;10.50;4.50;;;;;;;;;;5129699;27;20232;-78
2022/09/25 04:23:17;;;;;;;9.73;4.43;;;;;;;;;;5115770;27;20251;-77
2022/09/25 04:25:48;;;;;;;16.63;4.50;;;;;;;;;;5136014;27;20725;-78
2022/09/25 04:28:16;;;;;;;8.13;4.40;;;;;;;;;;5136356;27;20213;-78
2022/09/25 04:30:45;;;;;;;9.90;4.27;;;;;;;;;;5127228;27;20654;-78
2022/09/25 04:36:00;;;;;;;10.47;4.07;;;;;;;;;;5114728;28;20247;-77
2022/09/25 04:38:31;;;;;;;14.23;5.33;;;;;;;;;;5115016;28;20273;-77
2022/09/25 04:41:01;;;;;;;9.33;4.80;;;;;;;;;;5115017;28;20356;-78
2022/09/25 04:43:30;;;;;;;12.87;4.77;;;;;;;;;;5114833;28;20313;-78
2022/09/25 04:46:01;;;;;;;11.70;5.10;;;;;;;;;;5120659;27;20629;-78
2022/09/25 04:48:30;;;;;;;14.10;5.33;;;;;;;;;;5115344;28;20235;-78
2022/09/25 04:50:59;;;;;;;13.90;5.00;;;;;;;;;;5115063;28;20280;-78
2022/09/25 04:53:28;;;;;;;13.87;5.30;;;;;;;;;;5114439;28;20240;-78
2022/09/25 04:56:02;;;;;;;10.63;5.27;;;;;;;;;;5118681;28;20293;-78
2022/09/25 04:58:31;;;;;;;11.53;4.70;;;;;;;;;;5118768;28;20261;-78
2022/09/25 05:01:02;;;;;;;9.77;5.17;;;;;;;;;;5129574;28;20196;-77
2022/09/25 05:03:31;;;;;;;12.97;5.33;;;;;;;;;;5135205;27;20255;-78
2022/09/25 05:05:59;;;;;;;13.43;4.83;;;;;;;;;;5135355;27;20196;-77
2022/09/25 05:08:28;;;;;;;13.43;5.03;;;;;;;;;;5135210;27;20265;-77
2022/09/25 05:10:56;;;;;;;11.97;5.37;;;;;;;;;;5116404;27;20685;-77
2022/09/25 05:13:26;;;;;;;11.70;5.20;;;;;;;;;;5114668;28;20286;-77
2022/09/25 05:15:55;;;;;;;10.07;4.93;;;;;;;;;;5114437;28;20237;-78
2022/09/25 05:18:24;;;;;;;13.17;5.10;;;;;;;;;;5114406;28;20201;-78
2022/09/25 05:20:53;;;;;;;12.63;5.10;;;;;;;;;;5114047;28;20201;-77
2022/09/25 05:23:22;;;;;;;12.10;5.47;;;;;;;;;;5114388;28;20225;-78
2022/09/25 05:25:57;;;;;;;12.90;5.30;;;;;;;;;;5113816;28;20197;-78
2022/09/25 05:28:27;;;;;;;15.27;5.00;;;;;;;;;;5114354;28;20264;-78
2022/09/25 05:30:55;;;;;;;12.63;4.60;;;;;;;;;;5115160;28;20193;-77
2022/09/25 05:33:24;;;;;;;10.67;4.83;;;;;;;;;;5114394;28;20221;-77
2022/09/25 05:35:52;;;;;;;18.33;5.40;;;;;;;;;;5114158;28;20280;-77
2022/09/25 05:38:20;;;;;;;11.30;4.70;;;;;;;;;;5114096;28;20209;-78
2022/09/25 05:40:50;;;;;;;12.60;4.80;;;;;;;;;;5114051;28;20637;-77
2022/09/25 05:43:19;;;;;;;11.13;4.70;;;;;;;;;;5114670;28;20221;-78
2022/09/25 05:45:54;;;;;;;11.37;4.93;;;;;;;;;;5117485;28;20263;-78
2022/09/25 05:48:23;;;;;;;14.33;4.73;;;;;;;;;;5118305;28;20234;-78
2022/09/25 05:50:52;;;;;;;11.47;4.53;;;;;;;;;;5117868;28;20250;-78
2022/09/25 05:53:20;;;;;;;11.53;5.07;;;;;;;;;;5118362;28;20267;-78
2022/09/25 05:55:52;;;;;;;12.43;4.77;;;;;;;;;;5117667;28;20228;-78
2022/09/25 05:58:20;;;;;;;7.73;4.40;;;;;;;;;;5118269;28;20642;-78
2022/09/25 06:00:49;;;;;;;11.83;4.80;;;;;;;;;;5117944;28;20284;-77
2022/09/25 06:03:19;;;;;;;16.77;4.53;;;;;;;;;;5118479;28;20640;-78
2022/09/25 06:05:48;;;;;;;11.23;4.30;;;;;;;;;;5118243;28;20209;-78
2022/09/25 06:08:16;;;;;;;12.13;4.30;;;;;;;;;;5118404;28;20193;-78
2022/09/25 06:10:45;;;;;;;9.53;4.83;;;;;;;;;;5117643;28;20693;-78
2022/09/25 06:13:13;;;;;;;13.40;4.70;;;;;;;;;;5117561;28;20224;-78
2022/09/25 06:15:42;;;;;;;12.10;4.43;;;;;;;;;;5121782;27;20228;-78
2022/09/25 06:18:10;;;;;;;12.70;5.00;;;;;;;;;;5138634;27;20262;-78
2022/09/25 06:20:40;;;;;;;9.37;4.60;;;;;;;;;;5138355;27;20630;-78
2022/09/25 06:23:08;;;;;;;11.20;4.47;;;;;;;;;;5127966;27;20225;-76
2022/09/25 06:25:37;;;;;;;11.03;4.20;;;;;;;;;;5117708;28;20248;-78
2022/09/25 06:28:05;;;;;;;11.40;4.17;;;;;;;;;;5132015;27;20299;-78
2022/09/25 06:30:35;;;;;;;11.30;4.43;;;;;;;;;;5136296;27;20236;-78
2022/09/25 06:33:05;;;;;;;12.47;4.30;;;;;;;;;;5127400;27;20255;-77
2022/09/25 06:35:34;;;;;;;9.43;4.37;;;;;;;;;;5124581;27;20682;-78
2022/09/25 06:38:04;;;;;;;8.13;4.00;;;;;;;;;;5116955;28;20661;-78
2022/09/25 06:40:33;;;;;;;10.27;4.77;;;;;;;;;;5119265;27;20189;-78
2022/09/25 06:43:02;;;;;;;13.00;4.57;;;;;;;;;;5137558;27;20234;-78
2022/09/25 06:45:32;;;;;;;12.20;4.60;;;;;;;;;;5136811;27;20303;-76
2022/09/25 06:48:01;;;;;;;10.37;4.33;;;;;;;;;;5135723;27;20255;-77
2022/09/25 06:50:40;;;;;;;8.97;4.20;;;;;;;;;;5131914;27;20228;-77
2022/09/25 06:53:11;;;;;;;8.73;4.03;;;;;;;;;;5135711;27;20224;-77
2022/09/25 06:55:39;;;;;;;8.77;4.03;;;;;;;;;;5127858;27;20220;-78
2022/09/25 06:58:10;;;;;;;10.73;3.87;;;;;;;;;;5130802;27;20196;-77
2022/09/25 07:00:39;;;;;;;14.37;4.03;;;;;;;;;;5126987;27;20295;-75
2022/09/25 07:05:53;;;;;;;9.77;3.60;;;;;;;;;;5121521;27;20591;-78
2022/09/25 07:08:23;;;;;;;9.37;3.77;;;;;;;;;;5116833;28;20239;-78
2022/09/25 07:10:53;;;;;;;7.87;3.70;;;;;;;;;;5116741;28;20204;-78
2022/09/25 07:13:23;;;;;;;10.77;3.87;;;;;;;;;;5116229;28;20264;-78
2022/09/25 07:15:52;;;;;;;7.37;3.50;;;;;;;;;;5131121;27;20224;-78
2022/09/25 07:18:21;;;;;;;9.90;3.90;;;;;;;;;;5136689;27;20204;-78
2022/09/25 07:20:49;;;;;;;10.37;3.53;;;;;;;;;;5137025;27;20235;-78
2022/09/25 07:23:18;;;;;;;7.27;3.60;;;;;;;;;;5133333;27;20228;-77
2022/09/25 07:25:49;;;;;;;10.27;3.73;;;;;;;;;;5129202;27;20311;-78
2022/09/25 07:28:18;;;;;;;8.40;4.00;;;;;;;;;;5128171;27;20192;-77
2022/09/25 07:30:48;;;;;;;11.07;4.03;;;;;;;;;;5152470;27;20200;-76
2022/09/25 07:33:16;;;;;;;9.57;3.83;;;;;;;;;;5135604;27;20231;-77
2022/09/25 07:35:45;;;;;;;6.50;3.60;;;;;;;;;;5121837;27;20197;-77
2022/09/25 07:38:14;;;;;;;10.83;4.20;;;;;;;;;;5114439;28;20237;-77
2022/09/25 07:40:42;;;;;;;8.43;3.90;;;;;;;;;;5115958;27;20738;-77
2022/09/25 07:43:12;;;;;;;10.67;4.20;;;;;;;;;;5124120;27;20233;-77
2022/09/25 07:45:41;;;;;;;14.17;4.60;;;;;;;;;;5126123;27;20270;-76
2022/09/25 07:48:09;;;;;;;9.33;4.10;;;;;;;;;;5127582;27;20618;-78
2022/09/25 07:50:38;;;;;;;12.53;3.90;;;;;;;;;;5116135;28;20297;-78
2022/09/25 07:53:06;;;;;;;10.87;4.33;;;;;;;;;;5116168;28;20261;-78
2022/09/25 07:55:34;;;;;;;9.93;4.50;;;;;;;;;;5117903;27;20237;-78
2022/09/25 07:58:03;;;;;;;8.83;3.93;;;;;;;;;;5136391;27;20201;-78
2022/09/25 08:00:33;;;;;;;9.57;3.77;;;;;;;;;;5136058;27;20241;-78
2022/09/25 08:03:01;;;;;;;9.00;4.13;;;;;;;;;;5127388;27;20311;-78
2022/09/25 08:05:30;;;;;;;7.07;3.37;;;;;;;;;;5115505;28;20324;-78
2022/09/25 08:07:58;;;;;;;5.20;3.07;;;;;;;;;;5114880;28;20262;-77
2022/09/25 08:10:27;;;;;;;8.93;3.50;;;;;;;;;;5115525;28;20292;-79
2022/09/25 08:12:55;;;;;;;9.40;3.83;;;;;;;;;;5121028;27;20216;-77
2022/09/25 08:15:24;;;;;;;7.50;3.57;;;;;;;;;;5135951;27;20249;-77
2022/09/25 08:17:54;;;;;;;6.97;3.50;;;;;;;;;;5123720;27;20220;-78
2022/09/25 08:20:22;;;;;;;6.43;3.70;;;;;;;;;;5120112;27;20232;-78
2022/09/25 08:22:53;;;;;;;9.90;3.33;;;;;;;;;;5115300;28;20261;-78
2022/09/25 08:25:22;;;;;;;8.23;3.70;;;;;;;;;;5115159;27;20296;-77
2022/09/25 08:27:50;;;;;;;9.53;3.57;;;;;;;;;;5124739;27;20694;-77
2022/09/25 08:30:19;;;;;;;7.30;3.77;;;;;;;;;;5135309;27;20204;-78
2022/09/25 08:32:47;;;;;;;8.40;3.87;;;;;;;;;;5129814;27;20589;-77
2022/09/25 08:35:17;;;;;;;7.13;3.50;;;;;;;;;;5115009;28;20324;-78
2022/09/25 08:37:47;;;;;;;9.27;4.17;;;;;;;;;;5114507;28;20235;-77
2022/09/25 08:40:20;;;;;;;8.87;3.77;;;;;;;;;;5134118;27;20275;-78
2022/09/25 08:42:50;;;;;;;7.10;3.50;;;;;;;;;;5134511;27;20224;-77
2022/09/25 08:51:04;;;;;;;9.00;5.03;;;;;;;;;;5114630;28;20201;-78
2022/09/25 08:53:34;;;;;;;10.27;5.47;;;;;;;;;;5114604;28;20257;-78
2022/09/25 08:56:17;;;;;;;7.53;4.93;;;;;;;;;;5117896;28;20323;-78
2022/09/25 08:58:48;;;;;;;12.13;5.27;;;;;;;;;;5134707;28;20272;-78
2022/09/25 09:01:18;;;;;;;6.83;4.93;;;;;;;;;;5135026;27;20209;-76
2022/09/25 09:03:50;;;;;;;7.97;4.83;;;;;;;;;;5114500;28;20225;-78
2022/09/25 09:06:20;;;;;;;10.77;4.80;;;;;;;;;;5113930;28;20201;-78
2022/09/25 09:08:52;;;;;;;7.53;5.10;;;;;;;;;;5120356;27;20203;-79
2022/09/25 09:11:23;;;;;;;8.23;4.70;;;;;;;;;;5155324;27;20236;-78
2022/09/25 09:13:53;;;;;;;7.27;4.47;;;;;;;;;;5144358;27;20247;-78
2022/09/25 09:16:29;;;;;;;7.60;4.40;;;;;;;;;;5133408;28;20292;-77
2022/09/25 09:18:57;;;;;;;5.37;4.30;;;;;;;;;;5136108;27;20184;-77
2022/09/25 09:21:29;;;;;;;7.00;3.90;;;;;;;;;;5138391;27;20695;-77
2022/09/25 09:24:01;;;;;;;7.33;4.23;;;;;;;;;;5137225;27;20242;-77
2022/09/25 09:26:33;;;;;;;5.63;3.57;;;;;;;;;;5138199;27;20764;-77
2022/09/25 09:29:07;;;;;;;5.10;3.63;;;;;;;;;;5131749;27;20227;-76
2022/09/25 09:31:40;;;;;;;6.50;3.40;;;;;;;;;;5135900;27;20236;-77
2022/09/25 09:34:19;;;;;;;7.00;3.10;;;;;;;;;;5137580;27;20566;-77
2022/09/25 09:36:53;;;;;;;5.77;3.30;;;;;;;;;;5129690;27;20224;-78
2022/09/25 09:39:25;;;;;;;4.07;3.23;;;;;;;;;;5126805;27;20223;-78
2022/09/25 09:42:00;;;;;;;6.80;3.10;;;;;;;;;;5137769;27;20192;-77
2022/09/25 09:44:50;;;;;;;4.93;2.40;;;;;;;;;;5125148;27;20204;-79
2022/09/25 09:47:26;;;;;;;4.90;2.35;;;;;;;;;;5125083;27;20257;-74
2022/09/25 09:49:58;;;;;;;5.80;2.47;;;;;;;;;;5138194;27;20212;-77
2022/09/25 09:52:29;;;;;;;4.53;2.10;;;;;;;;;;5125160;27;20295;-79
2022/09/25 09:55:00;;;;;;;3.15;1.70;;;;;;;;;;5118999;28;20237;-79
2022/09/25 09:57:30;;;;;;;2.60;1.60;;;;;;;;;;5118932;27;20284;-79
2022/09/25 10:00:00;;;;;;;3.70;1.80;;;;;;;;;;5118642;28;20754;-78
2022/09/25 10:02:36;;;;;;;4.05;1.80;;;;;;;;;;5134816;27;20221;-79
2022/09/25 10:05:08;;;;;;;2.28;1.70;;;;;;;;;;5139674;27;20192;-78
2022/09/25 10:07:40;;;;;;;3.67;1.50;;;;;;;;;;5133794;27;20255;-79
2022/09/25 10:10:13;;;;;;;4.95;1.80;;;;;;;;;;5117621;28;20232;-78
2022/09/25 10:12:43;;;;;;;3.85;1.63;;;;;;;;;;5134202;27;20224;-79
2022/09/25 10:15:16;;;;;;;4.10;1.60;;;;;;;;;;5137871;27;20185;-78
2022/09/25 10:17:44;;;;;;;5.95;1.80;;;;;;;;;;5138250;27;20239;-78
2022/09/25 10:20:16;;;;;;;5.55;1.60;;;;;;;;;;5131485;27;20232;-79
2022/09/25 10:22:46;;;;;;;4.13;1.60;;;;;;;;;;5117476;28;20765;-77
2022/09/25 10:25:34;;;;;;;4.43;1.80;;;;;;;;;;5126112;27;20200;-79
2022/09/25 10:28:21;;;;;;;5.32;1.70;;;;;;;;;;5139117;27;20232;-79
2022/09/25 10:30:51;;;;;;;2.08;1.30;;;;;;;;;;5138166;27;20694;-78
2022/09/25 10:33:21;;;;;;;2.50;1.20;;;;;;;;;;5121543;27;20308;-79
2022/09/25 10:35:52;;;;;;;2.10;1.30;;;;;;;;;;5118039;28;20208;-80
2022/09/25 10:38:28;;;;;;;4.07;1.33;;;;;;;;;;5118291;27;20220;-79
2022/09/25 10:40:59;;;;;;;2.47;1.20;;;;;;;;;;5137982;27;20673;-80
2022/09/25 10:43:27;;;;;;;2.25;1.30;;;;;;;;;;5117723;28;20232;-79
2022/09/25 10:46:05;;;;;;;3.60;1.33;;;;;;;;;;5117133;28;20213;-79
2022/09/25 10:51:22;;;;;;;3.45;1.13;;;;;;;;;;5117835;28;20209;-78
2022/09/25 10:53:55;;;;;;;1.98;1.13;;;;;;;;;;5117855;28;20266;-78
2022/09/25 10:56:27;;;;;;;3.00;1.25;;;;;;;;;;5121753;27;21134;-78
2022/09/25 10:58:57;;;;;;;1.65;1.20;;;;;;;;;;5138554;27;20676;-79
2022/09/25 11:01:30;;;;;;;2.50;1.33;;;;;;;;;;5138223;27;20236;-79
2022/09/25 11:03:59;;;;;;;2.28;1.20;;;;;;;;;;5135764;27;20270;-79
2022/09/25 11:06:31;;;;;;;1.77;1.05;;;;;;;;;;5137927;27;20226;-78
2022/09/25 11:09:10;;;;;;;4.13;1.20;;;;;;;;;;5150720;27;20180;-79
2022/09/25 11:11:39;;;;;;;4.07;1.23;;;;;;;;;;5117625;28;20228;-77
2022/09/25 11:14:09;;;;;;;3.10;1.30;;;;;;;;;;5116818;28;20257;-76
2022/09/25 11:16:51;;;;;;;1.77;1.17;;;;;;;;;;5116626;28;20232;-78
2022/09/25 11:19:24;;;;;;;1.35;0.90;;;;;;;;;;5117042;28;20234;-79
2022/09/25 11:21:58;;;;;;;3.10;1.20;;;;;;;;;;5116948;28;20266;-77
2022/09/25 11:24:36;;;;;;;1.90;1.10;;;;;;;;;;5117547;28;20230;-79
2022/09/25 11:27:07;;;;;;;1.92;1.08;;;;;;;;;;5117166;28;20623;-78
2022/09/25 11:29:42;;;;;;;1.73;1.00;;;;;;;;;;5116895;28;20228;-79
2022/09/25 11:32:15;;;;;;;4.57;1.27;;;;;;;;;;5117586;28;20688;-79
2022/09/25 11:34:56;;;;;;;2.63;1.27;;;;;;;;;;5118083;27;20209;-79
2022/09/25 11:37:27;;;;;;;2.10;1.08;;;;;;;;;;5117736;28;20197;-79
2022/09/25 11:42:50;;;;;;;2.33;1.17;;;;;;;;;;5115555;28;20632;-78
2022/09/25 11:45:20;;;;;;;1.95;1.20;;;;;;;;;;5116089;28;20262;-79
2022/09/25 11:47:52;;;;;;;3.80;1.15;;;;;;;;;;5115168;28;20241;-78
2022/09/25 11:50:22;;;;;;;2.28;1.23;;;;;;;;;;5114948;28;20221;-78
2022/09/25 11:52:57;;;;;;;2.88;1.00;;;;;;;;;;5115456;28;20712;-79
2022/09/25 11:55:46;;;;;;;1.80;1.10;;;;;;;;;;5114980;28;20189;-78
2022/09/25 11:58:25;;;;;;;2.08;1.10;;;;;;;;;;5116804;28;20231;-79
2022/09/25 12:00:57;;;;;;;1.88;1.10;;;;;;;;;;5116875;28;20181;-78
2022/09/25 12:03:34;;;;;;;1.92;1.17;;;;;;;;;;5115480;28;20312;-78
2022/09/25 12:06:18;;;;;;;3.35;1.30;;;;;;;;;;5115784;28;20224;-79
2022/09/25 12:08:51;;;;;;;1.60;1.13;;;;;;;;;;5116635;28;20697;-79
2022/09/25 12:11:26;;;;;;;1.88;1.17;;;;;;;;;;5116814;28;20197;-79
2022/09/25 12:14:02;;;;;;;1.63;1.25;;;;;;;;;;5117209;28;20228;-79
2022/09/25 12:16:35;;;;;;;2.42;1.30;;;;;;;;;;5116517;28;20634;-79
2022/09/25 12:19:10;;;;;;;3.40;1.30;;;;;;;;;;5114816;28;20553;-79
2022/09/25 12:21:42;;;;;;;3.72;1.40;;;;;;;;;;5114644;28;20229;-78
2022/09/25 12:24:15;;;;;;;1.85;1.27;;;;;;;;;;5114902;28;20308;-78
2022/09/25 12:26:51;;;;;;;5.32;1.65;;;;;;;;;;5115123;28;20711;-78
2022/09/25 12:29:31;;;;;;;3.33;1.60;;;;;;;;;;5114393;28;20256;-78
2022/09/25 12:32:04;;;;;;;2.55;1.30;;;;;;;;;;5114163;28;20192;-78
2022/09/25 12:34:41;;;;;;;3.78;1.50;;;;;;;;;;5114717;28;20276;-78
2022/09/25 12:37:20;;;;;;;2.78;1.45;;;;;;;;;;5114933;28;20638;-79
2022/09/25 12:39:58;;;;;;;2.33;1.35;;;;;;;;;;5114544;28;20268;-78
2022/09/25 12:42:30;;;;;;;3.17;1.50;;;;;;;;;;5114151;28;20279;-78
2022/09/25 12:45:02;;;;;;;3.13;1.50;;;;;;;;;;5114159;28;20230;-79
2022/09/25 12:47:36;;;;;;;4.28;1.48;;;;;;;;;;5114565;28;20217;-78
2022/09/25 12:50:08;;;;;;;3.50;1.80;;;;;;;;;;5114557;28;20185;-78
2022/09/25 12:52:38;;;;;;;4.33;1.70;;;;;;;;;;5113985;28;20239;-79
2022/09/25 12:55:12;;;;;;;3.30;1.87;;;;;;;;;;5114135;28;20283;-79
2022/09/25 12:57:44;;;;;;;3.67;2.00;;;;;;;;;;5114303;28;20190;-79
2022/09/25 13:00:18;;;;;;;2.20;1.37;;;;;;;;;;5114212;28;20213;-79
2022/09/25 13:02:53;;;;;;;5.43;1.90;;;;;;;;;;5113881;28;20303;-79
2022/09/25 13:05:24;;;;;;;3.43;1.60;;;;;;;;;;5114125;28;20216;-78
2022/09/25 13:07:56;;;;;;;4.60;1.87;;;;;;;;;;5113805;28;20345;-78
2022/09/25 13:10:26;;;;;;;4.38;1.90;;;;;;;;;;5114022;28;20250;-79
2022/09/25 13:12:56;;;;;;;3.95;1.60;;;;;;;;;;5113368;28;20233;-79
2022/09/25 13:15:27;;;;;;;5.95;1.80;;;;;;;;;;5113960;28;20653;-79
2022/09/25 13:17:57;;;;;;;3.50;1.58;;;;;;;;;;5113478;28;20224;-78
2022/09/25 13:20:43;;;;;;;2.90;1.50;;;;;;;;;;5114292;28;20221;-79
2022/09/25 13:23:13;;;;;;;3.58;1.50;;;;;;;;;;5114234;28;20253;-78
2022/09/25 13:25:43;;;;;;;3.38;1.50;;;;;;;;;;5114394;28;20602;-79
2022/09/25 13:28:17;;;;;;;2.40;1.38;;;;;;;;;;5113956;28;20562;-78
2022/09/25 13:30:59;;;;;;;5.55;1.60;;;;;;;;;;5113856;28;20232;-78
2022/09/25 13:33:38;;;;;;;5.45;1.85;;;;;;;;;;5113395;28;20311;-79
2022/09/25 13:36:07;;;;;;;4.18;1.38;;;;;;;;;;5114050;28;20235;-79
2022/09/25 13:41:29;;;;;;;4.83;1.60;;;;;;;;;;5087637;28;20250;-79
2022/09/25 13:44:19;;;;;;;1.73;1.50;;;;;;;;;;5113590;28;20315;-79
2022/09/25 13:46:49;;;;;;;6.23;1.80;;;;;;;;;;5113784;28;20247;-79
2022/09/25 13:49:34;;;;;;;3.43;1.50;;;;;;;;;;5113523;28;20245;-78
2022/09/25 13:52:02;;;;;;;4.10;1.60;;;;;;;;;;5113760;28;20225;-79
2022/09/25 13:54:33;;;;;;;2.63;1.58;;;;;;;;;;5113624;28;20251;-78
2022/09/25 13:57:02;;;;;;;3.25;1.35;;;;;;;;;;5113244;28;20225;-79
2022/09/25 13:59:40;;;;;;;2.28;1.25;;;;;;;;;;5113383;28;20732;-79
2022/09/25 14:02:38;;;;;;;5.32;1.40;;;;;;;;;;5113709;28;20267;-79
2022/09/25 14:05:07;;;;;;;2.97;1.30;;;;;;;;;;5113802;28;20235;-79
2022/09/25 14:07:36;;;;;;;3.03;1.33;;;;;;;;;;5117532;28;20741;-79
2022/09/25 14:10:11;;;;;;;3.28;1.30;;;;;;;;;;5117080;28;20311;-78
2022/09/25 14:12:43;;;;;;;3.38;1.17;;;;;;;;;;5116802;28;20227;-79
2022/09/25 14:15:19;;;;;;;3.58;1.13;;;;;;;;;;5117137;28;20181;-79
2022/09/25 14:17:51;;;;;;;1.52;0.82;;;;;;;;;;5117071;28;20242;-79
2022/09/25 14:20:27;;;;;;;2.75;0.90;;;;;;;;;;5116585;28;20228;-77
2022/09/25 14:22:58;;;;;;;2.13;1.02;;;;;;;;;;5117166;28;20756;-78
2022/09/25 14:25:31;;;;;;;3.63;1.30;;;;;;;;;;5117000;27;20181;-79
2022/09/25 14:28:01;;;;;;;1.95;0.95;;;;;;;;;;5116735;28;20193;-79
2022/09/25 14:30:30;;;;;;;4.07;1.17;;;;;;;;;;5116852;28;20749;-79
2022/09/25 14:33:06;;;;;;;3.88;1.20;;;;;;;;;;5116506;28;20263;-78
2022/09/25 14:35:36;;;;;;;2.70;1.10;;;;;;;;;;5117002;28;20673;-79
2022/09/25 14:38:12;;;;;;;3.17;0.98;;;;;;;;;;5116449;28;20209;-77
2022/09/25 14:40:43;;;;;;;2.90;0.90;;;;;;;;;;5117162;28;20228;-79
2022/09/25 14:43:23;;;;;;;2.53;0.88;;;;;;;;;;5117455;28;20221;-78
2022/09/25 14:46:03;;;;;;;2.88;1.02;;;;;;;;;;5116068;28;20209;-79
2022/09/25 14:48:38;;;;;;;3.53;1.00;;;;;;;;;;5116266;28;20221;-79
2022/09/25 14:51:08;;;;;;;3.45;1.10;;;;;;;;;;5116264;28;20205;-79
2022/09/25 14:53:38;;;;;;;3.15;1.10;;;;;;;;;;5116802;28;20224;-78
2022/09/25 14:56:10;;;;;;;3.10;1.10;;;;;;;;;;5116766;28;20304;-79
2022/09/25 14:58:41;;;;;;;3.40;1.33;;;;;;;;;;5116766;28;20221;-79
2022/09/25 15:01:14;;;;;;;3.63;1.10;;;;;;;;;;5115957;28;20189;-79
2022/09/25 15:03:47;;;;;;;2.03;0.95;;;;;;;;;;5117730;28;20221;-78
2022/09/25 15:06:25;;;;;;;5.40;1.33;;;;;;;;;;5113880;28;20189;-79
2022/09/25 15:08:53;;;;;;;4.82;1.25;;;;;;;;;;5114519;28;20615;-79
2022/09/25 15:11:22;;;;;;;3.13;1.20;;;;;;;;;;5114259;28;20240;-78
2022/09/25 15:13:50;;;;;;;2.83;1.10;;;;;;;;;;5114714;28;20286;-79
2022/09/25 15:19:14;;;;;;;4.05;1.15;;;;;;;;;;5114376;28;20181;-79
2022/09/25 15:21:43;;;;;;;5.13;1.33;;;;;;;;;;5115040;28;20691;-77
2022/09/25 15:24:14;;;;;;;5.65;1.13;;;;;;;;;;5114671;28;20308;-78
2022/09/25 15:26:45;;;;;;;6.28;1.13;;;;;;;;;;5115894;28;20215;-78
2022/09/25 15:29:17;;;;;;;2.58;0.80;;;;;;;;;;5115781;28;20237;-79